sensor_id;sensor_type;location;lat;lon;timestamp;P1;durP1;ratioP1;P2;durP2;ratioP2
39982;SDS011;25670;44.782;10.356;2023-06-22T00:00:56;9.05;;;6.20;;
39982;SDS011;25670;44.782;10.356;2023-06-22T00:03:23;7.65;;;6.88;;
39982;SDS011;25670;44.782;10.356;2023-06-22T00:05:50;9.25;;;6.65;;
39982;SDS011;25670;44.782;10.356;2023-06-22T00:08:17;7.63;;;6.25;;
39982;SDS011;25670;44.782;10.356;2023-06-22T00:10:45;9.77;;;6.63;;
39982;SDS011;25670;44.782;10.356;2023-06-22T00:13:12;7.50;;;6.70;;
39982;SDS011;25670;44.782;10.356;2023-06-22T00:15:39;6.47;;;6.00;;
39982;SDS011;25670;44.782;10.356;2023-06-22T00:18:06;10.27;;;6.47;;
39982;SDS011;25670;44.782;10.356;2023-06-22T00:20:33;7.07;;;6.07;;
39982;SDS011;25670;44.782;10.356;2023-06-22T00:23:03;9.45;;;6.53;;
39982;SDS011;25670;44.782;10.356;2023-06-22T00:25:37;7.13;;;6.10;;
39982;SDS011;25670;44.782;10.356;2023-06-22T00:28:06;7.68;;;6.57;;
39982;SDS011;25670;44.782;10.356;2023-06-22T00:30:34;13.35;;;6.78;;
39982;SDS011;25670;44.782;10.356;2023-06-22T00:33:01;8.30;;;7.10;;
39982;SDS011;25670;44.782;10.356;2023-06-22T00:35:27;10.63;;;7.60;;
39982;SDS011;25670;44.782;10.356;2023-06-22T00:37:57;15.07;;;8.57;;
39982;SDS011;25670;44.782;10.356;2023-06-22T00:40:28;8.55;;;7.75;;
39982;SDS011;25670;44.782;10.356;2023-06-22T00:42:58;9.10;;;7.90;;
39982;SDS011;25670;44.782;10.356;2023-06-22T00:45:25;11.63;;;7.82;;
39982;SDS011;25670;44.782;10.356;2023-06-22T00:47:52;11.75;;;8.18;;
39982;SDS011;25670;44.782;10.356;2023-06-22T00:50:20;8.32;;;7.63;;
39982;SDS011;25670;44.782;10.356;2023-06-22T00:52:51;8.70;;;7.85;;
39982;SDS011;25670;44.782;10.356;2023-06-22T00:55:22;8.35;;;7.15;;
39982;SDS011;25670;44.782;10.356;2023-06-22T00:57:49;8.05;;;7.25;;
39982;SDS011;25670;44.782;10.356;2023-06-22T01:00:16;14.35;;;7.65;;
39982;SDS011;25670;44.782;10.356;2023-06-22T01:02:45;9.57;;;7.43;;
39982;SDS011;25670;44.782;10.356;2023-06-22T01:05:13;8.65;;;7.85;;
39982;SDS011;25670;44.782;10.356;2023-06-22T01:07:49;9.27;;;8.25;;
39982;SDS011;25670;44.782;10.356;2023-06-22T01:13:32;9.60;;;8.25;;
39982;SDS011;25670;44.782;10.356;2023-06-22T01:16:03;9.75;;;8.40;;
39982;SDS011;25670;44.782;10.356;2023-06-22T01:18:39;10.73;;;7.95;;
39982;SDS011;25670;44.782;10.356;2023-06-22T01:21:08;9.52;;;7.50;;
39982;SDS011;25670;44.782;10.356;2023-06-22T01:26:18;16.95;;;7.45;;
39982;SDS011;25670;44.782;10.356;2023-06-22T01:28:54;8.65;;;6.95;;
39982;SDS011;25670;44.782;10.356;2023-06-22T01:31:26;7.60;;;6.97;;
39982;SDS011;25670;44.782;10.356;2023-06-22T01:33:56;14.23;;;7.68;;
39982;SDS011;25670;44.782;10.356;2023-06-22T01:36:24;8.38;;;7.72;;
39982;SDS011;25670;44.782;10.356;2023-06-22T01:38:52;7.32;;;6.68;;
39982;SDS011;25670;44.782;10.356;2023-06-22T01:41:19;8.35;;;5.95;;
39982;SDS011;25670;44.782;10.356;2023-06-22T01:43:46;7.78;;;6.40;;
39982;SDS011;25670;44.782;10.356;2023-06-22T01:46:14;9.38;;;6.88;;
39982;SDS011;25670;44.782;10.356;2023-06-22T01:48:40;12.43;;;7.05;;
39982;SDS011;25670;44.782;10.356;2023-06-22T01:51:07;7.10;;;6.55;;
39982;SDS011;25670;44.782;10.356;2023-06-22T01:53:33;13.93;;;6.70;;
39982;SDS011;25670;44.782;10.356;2023-06-22T01:56:00;11.70;;;5.70;;
39982;SDS011;25670;44.782;10.356;2023-06-22T01:58:29;7.70;;;5.65;;
39982;SDS011;25670;44.782;10.356;2023-06-22T02:01:00;6.38;;;5.78;;
39982;SDS011;25670;44.782;10.356;2023-06-22T02:03:44;10.07;;;5.72;;
39982;SDS011;25670;44.782;10.356;2023-06-22T02:06:21;9.40;;;5.80;;
39982;SDS011;25670;44.782;10.356;2023-06-22T02:08:57;7.07;;;6.10;;
39982;SDS011;25670;44.782;10.356;2023-06-22T02:11:26;14.13;;;6.90;;
39982;SDS011;25670;44.782;10.356;2023-06-22T02:13:55;7.80;;;5.80;;
39982;SDS011;25670;44.782;10.356;2023-06-22T02:16:23;16.42;;;6.25;;
39982;SDS011;25670;44.782;10.356;2023-06-22T02:18:50;7.05;;;6.40;;
39982;SDS011;25670;44.782;10.356;2023-06-22T02:21:17;9.40;;;6.80;;
39982;SDS011;25670;44.782;10.356;2023-06-22T02:23:44;7.25;;;6.65;;
39982;SDS011;25670;44.782;10.356;2023-06-22T02:26:10;8.18;;;6.38;;
39982;SDS011;25670;44.782;10.356;2023-06-22T02:28:37;13.15;;;6.68;;
39982;SDS011;25670;44.782;10.356;2023-06-22T02:31:03;6.82;;;6.22;;
39982;SDS011;25670;44.782;10.356;2023-06-22T02:33:30;5.90;;;5.28;;
39982;SDS011;25670;44.782;10.356;2023-06-22T02:35:56;6.30;;;5.68;;
39982;SDS011;25670;44.782;10.356;2023-06-22T02:38:22;8.68;;;5.00;;
39982;SDS011;25670;44.782;10.356;2023-06-22T02:40:51;6.35;;;4.80;;
39982;SDS011;25670;44.782;10.356;2023-06-22T02:43:17;10.35;;;5.15;;
39982;SDS011;25670;44.782;10.356;2023-06-22T02:45:44;8.82;;;5.38;;
39982;SDS011;25670;44.782;10.356;2023-06-22T02:48:11;9.93;;;5.15;;
39982;SDS011;25670;44.782;10.356;2023-06-22T02:50:37;8.10;;;5.18;;
39982;SDS011;25670;44.782;10.356;2023-06-22T02:53:05;11.48;;;5.60;;
39982;SDS011;25670;44.782;10.356;2023-06-22T02:55:36;9.73;;;5.13;;
39982;SDS011;25670;44.782;10.356;2023-06-22T02:58:02;9.07;;;4.88;;
39982;SDS011;25670;44.782;10.356;2023-06-22T03:00:33;17.73;;;5.25;;
39982;SDS011;25670;44.782;10.356;2023-06-22T03:02:59;14.80;;;6.20;;
39982;SDS011;25670;44.782;10.356;2023-06-22T03:05:25;12.95;;;4.80;;
39982;SDS011;25670;44.782;10.356;2023-06-22T03:07:53;8.48;;;4.78;;
39982;SDS011;25670;44.782;10.356;2023-06-22T03:10:20;9.07;;;5.00;;
39982;SDS011;25670;44.782;10.356;2023-06-22T03:12:46;8.40;;;5.43;;
39982;SDS011;25670;44.782;10.356;2023-06-22T03:15:13;10.68;;;5.45;;
39982;SDS011;25670;44.782;10.356;2023-06-22T03:17:39;5.45;;;4.95;;
39982;SDS011;25670;44.782;10.356;2023-06-22T03:20:07;5.55;;;4.60;;
39982;SDS011;25670;44.782;10.356;2023-06-22T03:22:36;7.15;;;4.70;;
39982;SDS011;25670;44.782;10.356;2023-06-22T03:25:07;5.85;;;4.78;;
39982;SDS011;25670;44.782;10.356;2023-06-22T03:27:40;5.22;;;4.45;;
39982;SDS011;25670;44.782;10.356;2023-06-22T03:30:10;7.15;;;5.15;;
39982;SDS011;25670;44.782;10.356;2023-06-22T03:32:37;12.05;;;4.90;;
39982;SDS011;25670;44.782;10.356;2023-06-22T03:35:06;8.40;;;5.03;;
39982;SDS011;25670;44.782;10.356;2023-06-22T03:37:34;6.70;;;5.10;;
39982;SDS011;25670;44.782;10.356;2023-06-22T03:40:01;8.32;;;5.20;;
39982;SDS011;25670;44.782;10.356;2023-06-22T03:42:31;4.90;;;4.38;;
39982;SDS011;25670;44.782;10.356;2023-06-22T03:44:59;9.75;;;5.25;;
39982;SDS011;25670;44.782;10.356;2023-06-22T03:47:27;6.78;;;4.57;;
39982;SDS011;25670;44.782;10.356;2023-06-22T03:49:53;5.70;;;4.63;;
39982;SDS011;25670;44.782;10.356;2023-06-22T03:52:22;12.25;;;5.07;;
39982;SDS011;25670;44.782;10.356;2023-06-22T03:54:48;9.10;;;5.18;;
39982;SDS011;25670;44.782;10.356;2023-06-22T03:57:14;10.77;;;5.30;;
39982;SDS011;25670;44.782;10.356;2023-06-22T03:59:41;5.35;;;4.95;;
39982;SDS011;25670;44.782;10.356;2023-06-22T04:02:07;6.32;;;4.82;;
39982;SDS011;25670;44.782;10.356;2023-06-22T04:04:34;5.65;;;4.85;;
39982;SDS011;25670;44.782;10.356;2023-06-22T04:07:00;9.40;;;5.40;;
39982;SDS011;25670;44.782;10.356;2023-06-22T04:09:27;7.60;;;5.13;;
39982;SDS011;25670;44.782;10.356;2023-06-22T04:11:53;6.18;;;5.30;;
39982;SDS011;25670;44.782;10.356;2023-06-22T04:14:19;9.50;;;5.10;;
39982;SDS011;25670;44.782;10.356;2023-06-22T04:16:46;6.18;;;5.60;;
39982;SDS011;25670;44.782;10.356;2023-06-22T04:19:12;11.60;;;5.72;;
39982;SDS011;25670;44.782;10.356;2023-06-22T04:21:42;6.68;;;5.00;;
39982;SDS011;25670;44.782;10.356;2023-06-22T04:24:10;15.13;;;5.30;;
39982;SDS011;25670;44.782;10.356;2023-06-22T04:26:37;11.80;;;5.55;;
39982;SDS011;25670;44.782;10.356;2023-06-22T04:29:04;8.02;;;6.03;;
39982;SDS011;25670;44.782;10.356;2023-06-22T04:31:34;9.43;;;5.93;;
39982;SDS011;25670;44.782;10.356;2023-06-22T04:34:04;11.15;;;6.53;;
39982;SDS011;25670;44.782;10.356;2023-06-22T04:36:37;11.57;;;7.32;;
39982;SDS011;25670;44.782;10.356;2023-06-22T04:39:06;11.77;;;8.50;;
39982;SDS011;25670;44.782;10.356;2023-06-22T04:41:38;13.20;;;8.70;;
39982;SDS011;25670;44.782;10.356;2023-06-22T04:44:11;8.43;;;7.93;;
39982;SDS011;25670;44.782;10.356;2023-06-22T04:46:38;17.60;;;8.60;;
39982;SDS011;25670;44.782;10.356;2023-06-22T04:49:08;13.02;;;9.68;;
39982;SDS011;25670;44.782;10.356;2023-06-22T04:51:36;12.65;;;9.55;;
39982;SDS011;25670;44.782;10.356;2023-06-22T04:54:05;10.38;;;9.68;;
39982;SDS011;25670;44.782;10.356;2023-06-22T04:56:32;10.57;;;9.55;;
39982;SDS011;25670;44.782;10.356;2023-06-22T04:58:58;15.48;;;10.63;;
39982;SDS011;25670;44.782;10.356;2023-06-22T05:01:25;14.63;;;10.05;;
39982;SDS011;25670;44.782;10.356;2023-06-22T05:03:51;11.77;;;9.20;;
39982;SDS011;25670;44.782;10.356;2023-06-22T05:06:21;10.18;;;9.45;;
39982;SDS011;25670;44.782;10.356;2023-06-22T05:08:54;12.68;;;9.35;;
39982;SDS011;25670;44.782;10.356;2023-06-22T05:11:24;13.93;;;9.02;;
39982;SDS011;25670;44.782;10.356;2023-06-22T05:13:51;10.13;;;9.18;;
39982;SDS011;25670;44.782;10.356;2023-06-22T05:16:17;12.82;;;9.15;;
39982;SDS011;25670;44.782;10.356;2023-06-22T05:18:52;16.83;;;8.90;;
39982;SDS011;25670;44.782;10.356;2023-06-22T05:21:21;16.75;;;9.15;;
39982;SDS011;25670;44.782;10.356;2023-06-22T05:23:49;16.33;;;10.40;;
39982;SDS011;25670;44.782;10.356;2023-06-22T05:26:15;19.58;;;10.15;;
39982;SDS011;25670;44.782;10.356;2023-06-22T05:28:41;12.80;;;9.68;;
39982;SDS011;25670;44.782;10.356;2023-06-22T05:31:14;12.20;;;9.98;;
39982;SDS011;25670;44.782;10.356;2023-06-22T05:33:41;10.43;;;9.38;;
39982;SDS011;25670;44.782;10.356;2023-06-22T05:36:08;11.43;;;9.32;;
39982;SDS011;25670;44.782;10.356;2023-06-22T05:38:36;18.23;;;9.77;;
39982;SDS011;25670;44.782;10.356;2023-06-22T05:41:02;13.25;;;8.70;;
39982;SDS011;25670;44.782;10.356;2023-06-22T05:43:29;14.80;;;9.88;;
39982;SDS011;25670;44.782;10.356;2023-06-22T05:45:55;13.73;;;9.02;;
39982;SDS011;25670;44.782;10.356;2023-06-22T05:48:22;10.90;;;8.68;;
39982;SDS011;25670;44.782;10.356;2023-06-22T05:50:48;15.02;;;9.02;;
39982;SDS011;25670;44.782;10.356;2023-06-22T05:53:15;15.95;;;8.57;;
39982;SDS011;25670;44.782;10.356;2023-06-22T05:55:41;16.65;;;9.20;;
39982;SDS011;25670;44.782;10.356;2023-06-22T05:58:08;16.67;;;8.07;;
39982;SDS011;25670;44.782;10.356;2023-06-22T06:00:35;11.13;;;7.82;;
39982;SDS011;25670;44.782;10.356;2023-06-22T06:03:01;20.02;;;8.45;;
39982;SDS011;25670;44.782;10.356;2023-06-22T06:05:29;9.10;;;7.82;;
39982;SDS011;25670;44.782;10.356;2023-06-22T06:07:56;17.05;;;7.57;;
39982;SDS011;25670;44.782;10.356;2023-06-22T06:10:23;8.32;;;7.47;;
39982;SDS011;25670;44.782;10.356;2023-06-22T06:12:49;10.02;;;8.52;;
39982;SDS011;25670;44.782;10.356;2023-06-22T06:15:16;11.70;;;8.00;;
39982;SDS011;25670;44.782;10.356;2023-06-22T06:17:49;12.10;;;7.82;;
39982;SDS011;25670;44.782;10.356;2023-06-22T06:20:19;11.65;;;8.18;;
39982;SDS011;25670;44.782;10.356;2023-06-22T06:22:47;15.25;;;9.52;;
39982;SDS011;25670;44.782;10.356;2023-06-22T06:25:14;12.35;;;8.05;;
39982;SDS011;25670;44.782;10.356;2023-06-22T06:27:48;10.00;;;7.10;;
39982;SDS011;25670;44.782;10.356;2023-06-22T06:30:16;7.35;;;6.85;;
39982;SDS011;25670;44.782;10.356;2023-06-22T06:32:44;11.75;;;7.43;;
39982;SDS011;25670;44.782;10.356;2023-06-22T06:35:14;17.23;;;8.15;;
39982;SDS011;25670;44.782;10.356;2023-06-22T06:37:47;9.40;;;6.93;;
39982;SDS011;25670;44.782;10.356;2023-06-22T06:40:15;13.93;;;6.93;;
39982;SDS011;25670;44.782;10.356;2023-06-22T06:42:46;15.05;;;7.32;;
39982;SDS011;25670;44.782;10.356;2023-06-22T06:45:20;8.45;;;6.05;;
39982;SDS011;25670;44.782;10.356;2023-06-22T06:47:50;9.75;;;6.82;;
39982;SDS011;25670;44.782;10.356;2023-06-22T06:50:17;11.32;;;6.60;;
39982;SDS011;25670;44.782;10.356;2023-06-22T06:52:44;11.63;;;6.13;;
39982;SDS011;25670;44.782;10.356;2023-06-22T06:55:10;7.00;;;5.93;;
39982;SDS011;25670;44.782;10.356;2023-06-22T06:57:38;7.65;;;5.95;;
39982;SDS011;25670;44.782;10.356;2023-06-22T07:00:05;5.28;;;4.88;;
39982;SDS011;25670;44.782;10.356;2023-06-22T07:02:40;7.53;;;5.40;;
39982;SDS011;25670;44.782;10.356;2023-06-22T07:05:08;7.55;;;5.35;;
39982;SDS011;25670;44.782;10.356;2023-06-22T07:07:35;9.02;;;5.68;;
39982;SDS011;25670;44.782;10.356;2023-06-22T07:10:02;9.02;;;5.13;;
39982;SDS011;25670;44.782;10.356;2023-06-22T07:12:28;8.20;;;4.90;;
39982;SDS011;25670;44.782;10.356;2023-06-22T07:15:03;9.20;;;5.47;;
39982;SDS011;25670;44.782;10.356;2023-06-22T07:17:34;6.07;;;5.40;;
39982;SDS011;25670;44.782;10.356;2023-06-22T07:20:01;9.95;;;5.38;;
39982;SDS011;25670;44.782;10.356;2023-06-22T07:22:29;13.57;;;5.20;;
39982;SDS011;25670;44.782;10.356;2023-06-22T07:24:56;14.90;;;6.57;;
39982;SDS011;25670;44.782;10.356;2023-06-22T07:27:22;10.48;;;4.90;;
39982;SDS011;25670;44.782;10.356;2023-06-22T07:29:48;18.48;;;5.35;;
39982;SDS011;25670;44.782;10.356;2023-06-22T07:32:15;8.35;;;5.00;;
39982;SDS011;25670;44.782;10.356;2023-06-22T07:34:41;7.10;;;4.90;;
39982;SDS011;25670;44.782;10.356;2023-06-22T07:37:09;10.63;;;5.32;;
39982;SDS011;25670;44.782;10.356;2023-06-22T07:39:35;7.45;;;5.15;;
39982;SDS011;25670;44.782;10.356;2023-06-22T07:42:03;15.57;;;5.28;;
39982;SDS011;25670;44.782;10.356;2023-06-22T07:44:29;8.68;;;5.07;;
39982;SDS011;25670;44.782;10.356;2023-06-22T07:46:56;5.93;;;4.82;;
39982;SDS011;25670;44.782;10.356;2023-06-22T07:49:22;7.03;;;4.72;;
39982;SDS011;25670;44.782;10.356;2023-06-22T07:51:48;8.13;;;4.57;;
39982;SDS011;25670;44.782;10.356;2023-06-22T07:54:14;5.90;;;4.82;;
39982;SDS011;25670;44.782;10.356;2023-06-22T07:56:42;6.75;;;5.03;;
39982;SDS011;25670;44.782;10.356;2023-06-22T07:59:08;9.73;;;4.40;;
39982;SDS011;25670;44.782;10.356;2023-06-22T08:01:35;11.93;;;5.28;;
39982;SDS011;25670;44.782;10.356;2023-06-22T08:04:01;7.68;;;4.38;;
39982;SDS011;25670;44.782;10.356;2023-06-22T08:06:29;4.25;;;3.95;;
39982;SDS011;25670;44.782;10.356;2023-06-22T08:08:56;4.95;;;4.28;;
39982;SDS011;25670;44.782;10.356;2023-06-22T08:11:22;17.05;;;4.13;;
39982;SDS011;25670;44.782;10.356;2023-06-22T08:13:51;7.55;;;4.25;;
39982;SDS011;25670;44.782;10.356;2023-06-22T08:16:17;14.38;;;4.00;;
39982;SDS011;25670;44.782;10.356;2023-06-22T08:18:43;4.95;;;4.38;;
39982;SDS011;25670;44.782;10.356;2023-06-22T08:21:10;7.90;;;4.82;;
39982;SDS011;25670;44.782;10.356;2023-06-22T08:23:37;6.55;;;4.40;;
39982;SDS011;25670;44.782;10.356;2023-06-22T08:26:03;6.43;;;4.43;;
39982;SDS011;25670;44.782;10.356;2023-06-22T08:28:29;5.30;;;4.80;;
39982;SDS011;25670;44.782;10.356;2023-06-22T08:30:55;9.48;;;4.65;;
39982;SDS011;25670;44.782;10.356;2023-06-22T08:33:21;7.03;;;4.55;;
39982;SDS011;25670;44.782;10.356;2023-06-22T08:35:57;10.82;;;4.75;;
39982;SDS011;25670;44.782;10.356;2023-06-22T08:38:24;9.63;;;4.68;;
39982;SDS011;25670;44.782;10.356;2023-06-22T08:40:51;11.40;;;5.25;;
39982;SDS011;25670;44.782;10.356;2023-06-22T08:43:17;7.45;;;5.05;;
39982;SDS011;25670;44.782;10.356;2023-06-22T08:45:44;5.47;;;5.03;;
39982;SDS011;25670;44.782;10.356;2023-06-22T08:48:10;6.75;;;5.10;;
39982;SDS011;25670;44.782;10.356;2023-06-22T08:50:36;5.22;;;4.80;;
39982;SDS011;25670;44.782;10.356;2023-06-22T08:53:03;7.43;;;5.72;;
39982;SDS011;25670;44.782;10.356;2023-06-22T08:55:29;10.95;;;6.28;;
39982;SDS011;25670;44.782;10.356;2023-06-22T08:57:55;14.48;;;6.30;;
39982;SDS011;25670;44.782;10.356;2023-06-22T09:00:21;10.60;;;6.32;;
39982;SDS011;25670;44.782;10.356;2023-06-22T09:02:47;9.63;;;6.30;;
39982;SDS011;25670;44.782;10.356;2023-06-22T09:05:14;11.68;;;5.47;;
39982;SDS011;25670;44.782;10.356;2023-06-22T09:07:40;10.05;;;5.80;;
39982;SDS011;25670;44.782;10.356;2023-06-22T09:10:07;6.20;;;5.13;;
39982;SDS011;25670;44.782;10.356;2023-06-22T09:12:34;5.25;;;4.80;;
39982;SDS011;25670;44.782;10.356;2023-06-22T09:15:02;14.32;;;5.95;;
39982;SDS011;25670;44.782;10.356;2023-06-22T09:17:29;11.85;;;5.00;;
39982;SDS011;25670;44.782;10.356;2023-06-22T09:19:55;13.38;;;6.15;;
39982;SDS011;25670;44.782;10.356;2023-06-22T09:22:21;7.18;;;5.22;;
39982;SDS011;25670;44.782;10.356;2023-06-22T09:24:48;9.55;;;5.03;;
39982;SDS011;25670;44.782;10.356;2023-06-22T09:27:14;5.88;;;5.18;;
39982;SDS011;25670;44.782;10.356;2023-06-22T09:29:40;8.35;;;6.50;;
39982;SDS011;25670;44.782;10.356;2023-06-22T09:32:06;6.82;;;5.88;;
39982;SDS011;25670;44.782;10.356;2023-06-22T09:34:33;7.82;;;5.28;;
39982;SDS011;25670;44.782;10.356;2023-06-22T09:36:59;9.23;;;5.07;;
39982;SDS011;25670;44.782;10.356;2023-06-22T09:39:26;6.55;;;5.22;;
39982;SDS011;25670;44.782;10.356;2023-06-22T09:41:52;9.13;;;5.25;;
39982;SDS011;25670;44.782;10.356;2023-06-22T09:44:18;7.75;;;5.35;;
39982;SDS011;25670;44.782;10.356;2023-06-22T09:46:45;5.28;;;4.88;;
39982;SDS011;25670;44.782;10.356;2023-06-22T09:49:11;9.30;;;5.47;;
39982;SDS011;25670;44.782;10.356;2023-06-22T09:51:37;6.53;;;5.15;;
39982;SDS011;25670;44.782;10.356;2023-06-22T09:54:03;5.75;;;5.32;;
39982;SDS011;25670;44.782;10.356;2023-06-22T09:56:29;11.63;;;5.40;;
39982;SDS011;25670;44.782;10.356;2023-06-22T09:58:57;15.10;;;5.43;;
39982;SDS011;25670;44.782;10.356;2023-06-22T10:01:23;7.45;;;5.53;;
39982;SDS011;25670;44.782;10.356;2023-06-22T10:03:52;6.60;;;5.80;;
39982;SDS011;25670;44.782;10.356;2023-06-22T10:06:21;6.20;;;5.13;;
39982;SDS011;25670;44.782;10.356;2023-06-22T10:08:49;7.75;;;4.65;;
39982;SDS011;25670;44.782;10.356;2023-06-22T10:11:17;14.65;;;5.55;;
39982;SDS011;25670;44.782;10.356;2023-06-22T10:13:43;9.00;;;5.03;;
39982;SDS011;25670;44.782;10.356;2023-06-22T10:16:09;8.98;;;5.68;;
39982;SDS011;25670;44.782;10.356;2023-06-22T10:18:35;5.60;;;4.85;;
39982;SDS011;25670;44.782;10.356;2023-06-22T10:21:02;11.77;;;5.40;;
39982;SDS011;25670;44.782;10.356;2023-06-22T10:23:28;5.45;;;4.60;;
39982;SDS011;25670;44.782;10.356;2023-06-22T10:25:54;7.72;;;4.95;;
39982;SDS011;25670;44.782;10.356;2023-06-22T10:28:23;5.63;;;5.05;;
39982;SDS011;25670;44.782;10.356;2023-06-22T10:30:49;8.73;;;5.10;;
39982;SDS011;25670;44.782;10.356;2023-06-22T10:33:24;5.38;;;4.88;;
39982;SDS011;25670;44.782;10.356;2023-06-22T10:35:50;6.15;;;5.65;;
39982;SDS011;25670;44.782;10.356;2023-06-22T10:38:17;8.98;;;5.18;;
39982;SDS011;25670;44.782;10.356;2023-06-22T10:40:43;7.30;;;4.30;;
39982;SDS011;25670;44.782;10.356;2023-06-22T10:43:10;10.20;;;4.97;;
39982;SDS011;25670;44.782;10.356;2023-06-22T10:45:36;9.27;;;5.53;;
39982;SDS011;25670;44.782;10.356;2023-06-22T10:48:02;6.78;;;5.72;;
39982;SDS011;25670;44.782;10.356;2023-06-22T10:50:29;14.93;;;5.05;;
39982;SDS011;25670;44.782;10.356;2023-06-22T10:52:55;8.93;;;4.70;;
39982;SDS011;25670;44.782;10.356;2023-06-22T10:55:23;10.20;;;6.00;;
39982;SDS011;25670;44.782;10.356;2023-06-22T10:57:49;10.57;;;5.00;;
39982;SDS011;25670;44.782;10.356;2023-06-22T11:00:16;5.78;;;4.60;;
39982;SDS011;25670;44.782;10.356;2023-06-22T11:02:42;5.13;;;4.65;;
39982;SDS011;25670;44.782;10.356;2023-06-22T11:05:09;12.23;;;5.00;;
39982;SDS011;25670;44.782;10.356;2023-06-22T11:07:36;8.35;;;5.45;;
39982;SDS011;25670;44.782;10.356;2023-06-22T11:10:04;6.53;;;5.28;;
39982;SDS011;25670;44.782;10.356;2023-06-22T11:12:30;13.63;;;4.40;;
39982;SDS011;25670;44.782;10.356;2023-06-22T11:14:57;13.82;;;5.47;;
39982;SDS011;25670;44.782;10.356;2023-06-22T11:17:23;12.60;;;4.90;;
39982;SDS011;25670;44.782;10.356;2023-06-22T11:19:49;7.68;;;5.25;;
39982;SDS011;25670;44.782;10.356;2023-06-22T11:22:16;7.15;;;4.60;;
39982;SDS011;25670;44.782;10.356;2023-06-22T11:24:42;5.68;;;5.15;;
39982;SDS011;25670;44.782;10.356;2023-06-22T11:27:08;8.65;;;5.05;;
39982;SDS011;25670;44.782;10.356;2023-06-22T11:29:34;5.28;;;4.95;;
39982;SDS011;25670;44.782;10.356;2023-06-22T11:32:01;15.73;;;6.00;;
39982;SDS011;25670;44.782;10.356;2023-06-22T11:34:27;12.98;;;5.05;;
39982;SDS011;25670;44.782;10.356;2023-06-22T11:36:54;9.18;;;5.30;;
39982;SDS011;25670;44.782;10.356;2023-06-22T11:39:20;7.93;;;4.97;;
39982;SDS011;25670;44.782;10.356;2023-06-22T11:41:46;9.55;;;4.63;;
39982;SDS011;25670;44.782;10.356;2023-06-22T11:44:12;7.10;;;5.18;;
39982;SDS011;25670;44.782;10.356;2023-06-22T11:46:38;8.40;;;5.50;;
39982;SDS011;25670;44.782;10.356;2023-06-22T11:49:07;10.57;;;5.15;;
39982;SDS011;25670;44.782;10.356;2023-06-22T11:51:34;7.80;;;5.28;;
39982;SDS011;25670;44.782;10.356;2023-06-22T11:54:00;11.15;;;4.50;;
39982;SDS011;25670;44.782;10.356;2023-06-22T11:56:27;12.35;;;5.82;;
39982;SDS011;25670;44.782;10.356;2023-06-22T11:58:53;8.80;;;5.00;;
39982;SDS011;25670;44.782;10.356;2023-06-22T12:01:20;6.63;;;4.93;;
39982;SDS011;25670;44.782;10.356;2023-06-22T12:03:46;9.50;;;4.88;;
39982;SDS011;25670;44.782;10.356;2023-06-22T12:06:13;9.57;;;5.05;;
39982;SDS011;25670;44.782;10.356;2023-06-22T12:08:40;6.68;;;4.47;;
39982;SDS011;25670;44.782;10.356;2023-06-22T12:11:06;15.00;;;5.30;;
39982;SDS011;25670;44.782;10.356;2023-06-22T12:13:35;11.57;;;5.20;;
39982;SDS011;25670;44.782;10.356;2023-06-22T12:16:01;12.32;;;5.30;;
39982;SDS011;25670;44.782;10.356;2023-06-22T12:18:28;6.75;;;5.57;;
39982;SDS011;25670;44.782;10.356;2023-06-22T12:20:54;12.18;;;4.95;;
39982;SDS011;25670;44.782;10.356;2023-06-22T12:23:20;9.70;;;5.32;;
39982;SDS011;25670;44.782;10.356;2023-06-22T12:25:46;14.80;;;5.90;;
39982;SDS011;25670;44.782;10.356;2023-06-22T12:28:12;6.25;;;5.47;;
39982;SDS011;25670;44.782;10.356;2023-06-22T12:30:39;13.05;;;5.40;;
39982;SDS011;25670;44.782;10.356;2023-06-22T12:33:05;15.73;;;5.95;;
39982;SDS011;25670;44.782;10.356;2023-06-22T12:35:31;11.50;;;5.65;;
39982;SDS011;25670;44.782;10.356;2023-06-22T12:37:58;11.10;;;5.13;;
39982;SDS011;25670;44.782;10.356;2023-06-22T12:40:24;5.28;;;4.75;;
39982;SDS011;25670;44.782;10.356;2023-06-22T12:42:50;14.23;;;6.07;;
39982;SDS011;25670;44.782;10.356;2023-06-22T12:45:16;8.82;;;5.25;;
39982;SDS011;25670;44.782;10.356;2023-06-22T12:47:44;16.52;;;5.85;;
39982;SDS011;25670;44.782;10.356;2023-06-22T12:50:11;8.63;;;5.47;;
39982;SDS011;25670;44.782;10.356;2023-06-22T12:52:37;9.20;;;4.93;;
39982;SDS011;25670;44.782;10.356;2023-06-22T12:55:05;15.88;;;5.15;;
39982;SDS011;25670;44.782;10.356;2023-06-22T12:57:32;11.30;;;5.38;;
39982;SDS011;25670;44.782;10.356;2023-06-22T12:59:59;5.53;;;4.97;;
39982;SDS011;25670;44.782;10.356;2023-06-22T13:02:26;11.95;;;5.57;;
39982;SDS011;25670;44.782;10.356;2023-06-22T13:04:52;13.48;;;5.57;;
39982;SDS011;25670;44.782;10.356;2023-06-22T13:07:19;12.73;;;6.38;;
39982;SDS011;25670;44.782;10.356;2023-06-22T13:09:45;8.25;;;6.35;;
39982;SDS011;25670;44.782;10.356;2023-06-22T13:12:12;8.38;;;5.07;;
39982;SDS011;25670;44.782;10.356;2023-06-22T13:14:38;9.30;;;6.00;;
39982;SDS011;25670;44.782;10.356;2023-06-22T13:17:05;8.45;;;5.53;;
39982;SDS011;25670;44.782;10.356;2023-06-22T13:19:31;6.68;;;6.15;;
39982;SDS011;25670;44.782;10.356;2023-06-22T13:21:58;9.93;;;6.60;;
39982;SDS011;25670;44.782;10.356;2023-06-22T13:24:25;14.00;;;6.63;;
39982;SDS011;25670;44.782;10.356;2023-06-22T13:26:51;14.43;;;6.93;;
39982;SDS011;25670;44.782;10.356;2023-06-22T13:29:18;6.45;;;5.65;;
39982;SDS011;25670;44.782;10.356;2023-06-22T13:31:44;16.75;;;6.50;;
39982;SDS011;25670;44.782;10.356;2023-06-22T13:34:10;9.85;;;6.28;;
39982;SDS011;25670;44.782;10.356;2023-06-22T13:36:36;8.98;;;7.05;;
39982;SDS011;25670;44.782;10.356;2023-06-22T13:39:02;11.85;;;6.97;;
39982;SDS011;25670;44.782;10.356;2023-06-22T13:41:29;16.27;;;7.20;;
39982;SDS011;25670;44.782;10.356;2023-06-22T13:43:55;12.10;;;6.57;;
39982;SDS011;25670;44.782;10.356;2023-06-22T13:46:22;14.18;;;6.55;;
39982;SDS011;25670;44.782;10.356;2023-06-22T13:48:48;12.20;;;5.82;;
39982;SDS011;25670;44.782;10.356;2023-06-22T13:51:14;8.93;;;5.65;;
39982;SDS011;25670;44.782;10.356;2023-06-22T13:53:40;9.27;;;6.13;;
39982;SDS011;25670;44.782;10.356;2023-06-22T13:56:06;10.75;;;6.93;;
39982;SDS011;25670;44.782;10.356;2023-06-22T13:58:33;14.70;;;7.80;;
39982;SDS011;25670;44.782;10.356;2023-06-22T14:00:59;13.70;;;7.15;;
39982;SDS011;25670;44.782;10.356;2023-06-22T14:03:25;16.88;;;7.90;;
39982;SDS011;25670;44.782;10.356;2023-06-22T14:05:51;10.50;;;5.78;;
39982;SDS011;25670;44.782;10.356;2023-06-22T14:08:39;10.15;;;6.20;;
39982;SDS011;25670;44.782;10.356;2023-06-22T14:11:05;16.08;;;6.88;;
39982;SDS011;25670;44.782;10.356;2023-06-22T14:13:31;10.68;;;6.35;;
39982;SDS011;25670;44.782;10.356;2023-06-22T14:15:58;7.43;;;6.10;;
39982;SDS011;25670;44.782;10.356;2023-06-22T14:18:24;11.10;;;6.68;;
39982;SDS011;25670;44.782;10.356;2023-06-22T14:20:50;11.20;;;5.88;;
39982;SDS011;25670;44.782;10.356;2023-06-22T14:23:16;9.68;;;6.35;;
39982;SDS011;25670;44.782;10.356;2023-06-22T14:25:43;6.95;;;5.63;;
39982;SDS011;25670;44.782;10.356;2023-06-22T14:28:09;7.97;;;6.57;;
39982;SDS011;25670;44.782;10.356;2023-06-22T14:30:36;13.38;;;7.28;;
39982;SDS011;25670;44.782;10.356;2023-06-22T14:33:02;11.38;;;6.40;;
39982;SDS011;25670;44.782;10.356;2023-06-22T14:35:28;11.48;;;6.53;;